sensor_id;sensor_type;location;lat;lon;timestamp;pressure;altitude;pressure_sealevel;temperature;humidity
6833;BME280;3454;42.654;23.378;2023-02-02T00:00:52;94885.28;;;5.05;65.43
6833;BME280;3454;42.654;23.378;2023-02-02T00:03:18;94875.31;;;5.03;64.88
6833;BME280;3454;42.654;23.378;2023-02-02T00:05:48;94878.00;;;5.15;65.18
6833;BME280;3454;42.654;23.378;2023-02-02T00:08:15;94839.66;;;5.09;65.87
6833;BME280;3454;42.654;23.378;2023-02-02T00:10:40;94856.69;;;5.06;65.38
6833;BME280;3454;42.654;23.378;2023-02-02T00:13:06;94853.06;;;5.10;65.95
6833;BME280;3454;42.654;23.378;2023-02-02T00:15:32;94833.91;;;5.07;66.03
6833;BME280;3454;42.654;23.378;2023-02-02T00:17:57;94823.47;;;4.99;66.40
6833;BME280;3454;42.654;23.378;2023-02-02T00:20:23;94821.16;;;4.96;66.82
6833;BME280;3454;42.654;23.378;2023-02-02T00:22:48;94817.00;;;4.95;66.99
6833;BME280;3454;42.654;23.378;2023-02-02T00:25:14;94821.34;;;4.93;67.22
6833;BME280;3454;42.654;23.378;2023-02-02T00:27:39;94769.06;;;4.97;69.18
6833;BME280;3454;42.654;23.378;2023-02-02T00:30:06;94798.91;;;5.03;67.94
6833;BME280;3454;42.654;23.378;2023-02-02T00:32:31;94769.44;;;4.91;68.37
6833;BME280;3454;42.654;23.378;2023-02-02T00:34:57;94774.44;;;5.19;69.82
6833;BME280;3454;42.654;23.378;2023-02-02T00:37:22;94783.31;;;5.25;68.97
6833;BME280;3454;42.654;23.378;2023-02-02T00:39:47;94776.63;;;5.24;69.44
6833;BME280;3454;42.654;23.378;2023-02-02T00:42:13;94799.41;;;5.22;68.44
6833;BME280;3454;42.654;23.378;2023-02-02T00:44:38;94835.88;;;5.17;67.26
6833;BME280;3454;42.654;23.378;2023-02-02T00:47:36;94818.59;;;5.25;68.97
6833;BME280;3454;42.654;23.378;2023-02-02T00:50:02;94818.78;;;5.07;68.16
6833;BME280;3454;42.654;23.378;2023-02-02T00:52:28;94805.84;;;4.99;68.14
6833;BME280;3454;42.654;23.378;2023-02-02T00:54:53;94811.81;;;4.98;68.23
6833;BME280;3454;42.654;23.378;2023-02-02T00:57:19;94797.84;;;4.93;68.74
6833;BME280;3454;42.654;23.378;2023-02-02T00:59:44;94764.53;;;4.75;69.55
6833;BME280;3454;42.654;23.378;2023-02-02T01:02:11;94752.41;;;4.68;70.20
6833;BME280;3454;42.654;23.378;2023-02-02T01:04:36;94725.00;;;4.63;70.98
6833;BME280;3454;42.654;23.378;2023-02-02T01:07:02;94718.59;;;4.72;71.24
6833;BME280;3454;42.654;23.378;2023-02-02T01:09:27;94702.59;;;4.59;72.16
6833;BME280;3454;42.654;23.378;2023-02-02T01:11:53;94654.75;;;4.46;73.46
6833;BME280;3454;42.654;23.378;2023-02-02T01:14:20;94676.81;;;4.55;73.44
6833;BME280;3454;42.654;23.378;2023-02-02T01:16:45;94641.16;;;4.49;74.74
6833;BME280;3454;42.654;23.378;2023-02-02T01:19:15;94631.06;;;4.49;75.73
6833;BME280;3454;42.654;23.378;2023-02-02T01:21:41;94586.16;;;4.43;76.83
6833;BME280;3454;42.654;23.378;2023-02-02T01:24:07;94619.09;;;4.66;76.27
6833;BME280;3454;42.654;23.378;2023-02-02T01:26:33;94596.50;;;4.65;77.27
6833;BME280;3454;42.654;23.378;2023-02-02T01:28:58;94593.25;;;4.50;77.04
6833;BME280;3454;42.654;23.378;2023-02-02T01:31:24;94566.78;;;4.57;78.71
6833;BME280;3454;42.654;23.378;2023-02-02T01:33:49;94583.09;;;4.52;77.76
6833;BME280;3454;42.654;23.378;2023-02-02T01:36:18;94569.03;;;4.62;78.36
6833;BME280;3454;42.654;23.378;2023-02-02T01:38:44;94566.06;;;4.55;78.61
6833;BME280;3454;42.654;23.378;2023-02-02T01:41:24;94547.84;;;4.52;79.09
6833;BME280;3454;42.654;23.378;2023-02-02T01:43:52;94573.66;;;4.68;77.40
6833;BME280;3454;42.654;23.378;2023-02-02T01:46:27;94554.59;;;4.51;78.83
6833;BME280;3454;42.654;23.378;2023-02-02T01:54:08;94575.81;;;4.74;77.19
6833;BME280;3454;42.654;23.378;2023-02-02T01:56:47;94573.53;;;4.57;76.70
6833;BME280;3454;42.654;23.378;2023-02-02T01:59:15;94549.69;;;4.62;77.96
6833;BME280;3454;42.654;23.378;2023-02-02T02:01:44;94559.75;;;4.62;77.82
6833;BME280;3454;42.654;23.378;2023-02-02T02:04:10;94567.88;;;4.53;77.79
6833;BME280;3454;42.654;23.378;2023-02-02T02:06:36;94519.94;;;4.42;80.12
6833;BME280;3454;42.654;23.378;2023-02-02T02:09:04;94532.25;;;4.20;79.01
6833;BME280;3454;42.654;23.378;2023-02-02T02:11:32;94517.00;;;4.09;80.02
6833;BME280;3454;42.654;23.378;2023-02-02T02:14:00;94511.84;;;3.98;80.82
6833;BME280;3454;42.654;23.378;2023-02-02T02:35:13;94491.66;;;3.59;81.95
6833;BME280;3454;42.654;23.378;2023-02-02T02:42:55;94484.81;;;3.61;82.79
6833;BME280;3454;42.654;23.378;2023-02-02T02:45:25;94460.19;;;3.66;83.09
6833;BME280;3454;42.654;23.378;2023-02-02T02:47:52;94498.72;;;3.66;81.59
6833;BME280;3454;42.654;23.378;2023-02-02T02:50:17;94478.38;;;3.57;83.24
6833;BME280;3454;42.654;23.378;2023-02-02T02:52:44;94473.34;;;3.57;83.76
6833;BME280;3454;42.654;23.378;2023-02-02T02:55:11;94499.91;;;3.61;81.23
6833;BME280;3454;42.654;23.378;2023-02-02T02:58:06;94485.63;;;3.61;82.04
6833;BME280;3454;42.654;23.378;2023-02-02T03:08:42;94489.13;;;3.59;82.73
6833;BME280;3454;42.654;23.378;2023-02-02T03:11:11;94482.09;;;3.64;82.52
6833;BME280;3454;42.654;23.378;2023-02-02T03:13:39;94474.94;;;3.58;82.76
6833;BME280;3454;42.654;23.378;2023-02-02T03:16:05;94450.34;;;3.63;83.54
6833;BME280;3454;42.654;23.378;2023-02-02T03:18:31;94486.31;;;3.77;82.65
6833;BME280;3454;42.654;23.378;2023-02-02T03:20:57;94484.19;;;3.98;83.20
6833;BME280;3454;42.654;23.378;2023-02-02T03:23:23;94475.06;;;4.09;82.97
6833;BME280;3454;42.654;23.378;2023-02-02T03:25:48;94461.84;;;3.93;82.34
6833;BME280;3454;42.654;23.378;2023-02-02T03:28:15;94485.13;;;3.83;81.84
6833;BME280;3454;42.654;23.378;2023-02-02T03:30:42;94500.41;;;4.06;81.35
6833;BME280;3454;42.654;23.378;2023-02-02T03:33:09;94488.31;;;3.99;82.48
6833;BME280;3454;42.654;23.378;2023-02-02T03:35:35;94491.94;;;3.81;81.99
6833;BME280;3454;42.654;23.378;2023-02-02T03:38:00;94465.00;;;3.83;84.43
6833;BME280;3454;42.654;23.378;2023-02-02T03:40:27;94504.00;;;4.02;82.06
6833;BME280;3454;42.654;23.378;2023-02-02T03:42:53;94518.09;;;4.05;80.93
6833;BME280;3454;42.654;23.378;2023-02-02T03:45:18;94478.41;;;3.83;83.63
6833;BME280;3454;42.654;23.378;2023-02-02T03:47:43;94498.25;;;3.74;82.58
6833;BME280;3454;42.654;23.378;2023-02-02T03:50:09;94524.44;;;3.84;80.44
6833;BME280;3454;42.654;23.378;2023-02-02T03:52:35;94500.44;;;3.92;82.64
6833;BME280;3454;42.654;23.378;2023-02-02T03:55:00;94471.41;;;4.01;84.77
6833;BME280;3454;42.654;23.378;2023-02-02T03:57:25;94497.66;;;3.97;82.09
6833;BME280;3454;42.654;23.378;2023-02-02T03:59:51;94462.13;;;3.89;82.83
6833;BME280;3454;42.654;23.378;2023-02-02T04:02:17;94512.56;;;4.00;82.31
6833;BME280;3454;42.654;23.378;2023-02-02T04:04:42;94460.22;;;3.92;85.35
6833;BME280;3454;42.654;23.378;2023-02-02T04:07:07;94474.16;;;3.84;84.32
6833;BME280;3454;42.654;23.378;2023-02-02T04:09:33;94429.72;;;3.58;87.35
6833;BME280;3454;42.654;23.378;2023-02-02T04:11:58;94433.13;;;3.57;87.62
6833;BME280;3454;42.654;23.378;2023-02-02T04:14:24;94395.94;;;3.49;89.46
6833;BME280;3454;42.654;23.378;2023-02-02T04:16:49;94445.44;;;3.61;87.52
6833;BME280;3454;42.654;23.378;2023-02-02T04:19:15;94435.75;;;3.55;87.17
6833;BME280;3454;42.654;23.378;2023-02-02T04:21:41;94408.09;;;3.28;88.24
6833;BME280;3454;42.654;23.378;2023-02-02T04:24:10;94424.69;;;3.17;89.39
6833;BME280;3454;42.654;23.378;2023-02-02T04:26:36;94413.22;;;3.13;90.22
6833;BME280;3454;42.654;23.378;2023-02-02T04:29:01;94410.81;;;2.97;89.00
6833;BME280;3454;42.654;23.378;2023-02-02T04:31:27;94369.38;;;3.04;92.05
6833;BME280;3454;42.654;23.378;2023-02-02T04:33:55;94421.72;;;3.24;90.35
6833;BME280;3454;42.654;23.378;2023-02-02T04:36:20;94439.06;;;3.01;89.46
6833;BME280;3454;42.654;23.378;2023-02-02T04:38:50;94428.91;;;3.16;89.22
6833;BME280;3454;42.654;23.378;2023-02-02T04:41:17;94447.19;;;3.18;87.84
6833;BME280;3454;42.654;23.378;2023-02-02T04:43:46;94447.91;;;3.20;88.62
6833;BME280;3454;42.654;23.378;2023-02-02T04:46:12;94446.97;;;3.35;89.22
6833;BME280;3454;42.654;23.378;2023-02-02T04:48:38;94476.41;;;3.33;87.94
6833;BME280;3454;42.654;23.378;2023-02-02T04:51:11;94464.50;;;3.23;89.03
6833;BME280;3454;42.654;23.378;2023-02-02T04:53:37;94490.94;;;3.42;87.01
6833;BME280;3454;42.654;23.378;2023-02-02T04:56:05;94486.56;;;3.18;87.43
6833;BME280;3454;42.654;23.378;2023-02-02T04:58:32;94464.06;;;3.16;88.67
6833;BME280;3454;42.654;23.378;2023-02-02T05:00:57;94458.84;;;3.05;88.46
6833;BME280;3454;42.654;23.378;2023-02-02T05:03:22;94460.28;;;2.95;89.18
6833;BME280;3454;42.654;23.378;2023-02-02T05:05:48;94454.75;;;3.04;88.63
6833;BME280;3454;42.654;23.378;2023-02-02T05:08:13;94466.75;;;2.99;88.31
6833;BME280;3454;42.654;23.378;2023-02-02T05:10:45;94454.47;;;2.95;89.28
6833;BME280;3454;42.654;23.378;2023-02-02T05:13:10;94484.88;;;3.18;87.60
6833;BME280;3454;42.654;23.378;2023-02-02T05:15:35;94474.28;;;3.13;88.10
6833;BME280;3454;42.654;23.378;2023-02-02T05:18:01;94506.63;;;2.90;85.99
6833;BME280;3454;42.654;23.378;2023-02-02T05:20:26;94481.09;;;3.11;87.25
6833;BME280;3454;42.654;23.378;2023-02-02T05:22:52;94491.50;;;3.19;87.15
6833;BME280;3454;42.654;23.378;2023-02-02T05:25:17;94490.78;;;3.17;86.90
6833;BME280;3454;42.654;23.378;2023-02-02T05:27:44;94513.72;;;3.25;85.18
6833;BME280;3454;42.654;23.378;2023-02-02T05:30:11;94509.88;;;3.20;85.46
6833;BME280;3454;42.654;23.378;2023-02-02T05:32:37;94486.13;;;3.11;86.88
6833;BME280;3454;42.654;23.378;2023-02-02T05:35:02;94482.00;;;3.10;87.59
6833;BME280;3454;42.654;23.378;2023-02-02T05:37:27;94481.75;;;3.01;87.81
6833;BME280;3454;42.654;23.378;2023-02-02T05:39:53;94468.81;;;3.21;88.42
6833;BME280;3454;42.654;23.378;2023-02-02T05:42:18;94507.97;;;3.37;87.52
6833;BME280;3454;42.654;23.378;2023-02-02T05:44:44;94455.97;;;3.25;90.00
6833;BME280;3454;42.654;23.378;2023-02-02T05:47:09;94422.91;;;3.46;92.87
6833;BME280;3454;42.654;23.378;2023-02-02T05:49:35;94453.16;;;3.44;91.79
6833;BME280;3454;42.654;23.378;2023-02-02T05:52:00;94449.09;;;3.29;90.00
6833;BME280;3454;42.654;23.378;2023-02-02T05:54:25;94490.47;;;3.50;90.18
6833;BME280;3454;42.654;23.378;2023-02-02T05:56:52;94482.41;;;3.59;90.06
6833;BME280;3454;42.654;23.378;2023-02-02T05:59:19;94431.59;;;2.85;92.87
6833;BME280;3454;42.654;23.378;2023-02-02T06:01:45;94457.34;;;3.17;92.58
6833;BME280;3454;42.654;23.378;2023-02-02T06:04:12;94452.13;;;3.06;93.09
6833;BME280;3454;42.654;23.378;2023-02-02T06:06:37;94469.09;;;3.16;91.79
6833;BME280;3454;42.654;23.378;2023-02-02T06:09:05;94463.34;;;3.14;91.65
6833;BME280;3454;42.654;23.378;2023-02-02T06:11:31;94467.41;;;3.03;91.97
6833;BME280;3454;42.654;23.378;2023-02-02T06:13:56;94459.75;;;2.90;93.09
6833;BME280;3454;42.654;23.378;2023-02-02T06:16:22;94450.97;;;2.83;93.38
6833;BME280;3454;42.654;23.378;2023-02-02T06:18:48;94468.47;;;2.85;92.32
6833;BME280;3454;42.654;23.378;2023-02-02T06:21:13;94464.59;;;2.79;93.16
6833;BME280;3454;42.654;23.378;2023-02-02T06:23:39;94462.16;;;2.64;93.29
6833;BME280;3454;42.654;23.378;2023-02-02T06:26:13;94465.13;;;2.56;95.78
6833;BME280;3454;42.654;23.378;2023-02-02T06:28:40;94468.25;;;2.60;95.99
6833;BME280;3454;42.654;23.378;2023-02-02T06:31:07;94471.84;;;2.70;95.75
6833;BME280;3454;42.654;23.378;2023-02-02T06:33:33;94491.44;;;2.63;95.02
6833;BME280;3454;42.654;23.378;2023-02-02T06:36:01;94486.63;;;2.60;95.49
6833;BME280;3454;42.654;23.378;2023-02-02T06:38:27;94514.78;;;2.79;93.08
6833;BME280;3454;42.654;23.378;2023-02-02T06:40:53;94515.13;;;2.73;93.28
6833;BME280;3454;42.654;23.378;2023-02-02T06:43:18;94490.81;;;2.60;94.86
6833;BME280;3454;42.654;23.378;2023-02-02T06:45:44;94494.56;;;2.52;97.54
6833;BME280;3454;42.654;23.378;2023-02-02T06:48:09;94511.84;;;2.73;95.11
6833;BME280;3454;42.654;23.378;2023-02-02T06:50:36;94471.75;;;2.27;98.40
6833;BME280;3454;42.654;23.378;2023-02-02T06:53:02;94463.06;;;2.33;100.00
6833;BME280;3454;42.654;23.378;2023-02-02T06:55:28;94519.03;;;2.63;96.60
6833;BME280;3454;42.654;23.378;2023-02-02T06:58:00;94532.13;;;2.54;96.41
6833;BME280;3454;42.654;23.378;2023-02-02T07:00:28;94504.41;;;2.41;97.99
6833;BME280;3454;42.654;23.378;2023-02-02T07:02:54;94543.78;;;2.69;96.36
6833;BME280;3454;42.654;23.378;2023-02-02T07:05:19;94538.63;;;2.72;96.30
6833;BME280;3454;42.654;23.378;2023-02-02T07:07:49;94509.34;;;2.57;98.58
6833;BME280;3454;42.654;23.378;2023-02-02T07:10:15;94530.84;;;2.47;97.72
6833;BME280;3454;42.654;23.378;2023-02-02T07:12:40;94549.50;;;2.57;97.10
6833;BME280;3454;42.654;23.378;2023-02-02T07:15:06;94539.78;;;2.67;97.95
6833;BME280;3454;42.654;23.378;2023-02-02T07:17:32;94544.94;;;2.64;96.22
6833;BME280;3454;42.654;23.378;2023-02-02T07:19:57;94526.22;;;2.69;97.90
6833;BME280;3454;42.654;23.378;2023-02-02T07:22:23;94534.84;;;2.79;98.58
6833;BME280;3454;42.654;23.378;2023-02-02T07:24:48;94526.94;;;3.01;98.97
6833;BME280;3454;42.654;23.378;2023-02-02T07:27:14;94601.00;;;3.22;94.30
6833;BME280;3454;42.654;23.378;2023-02-02T07:29:39;94597.53;;;3.24;94.32
6833;BME280;3454;42.654;23.378;2023-02-02T07:32:05;94585.78;;;3.25;94.93
6833;BME280;3454;42.654;23.378;2023-02-02T07:34:30;94625.25;;;3.23;92.76
6833;BME280;3454;42.654;23.378;2023-02-02T07:36:56;94641.44;;;3.17;92.33
6833;BME280;3454;42.654;23.378;2023-02-02T07:39:22;94623.94;;;3.02;93.31
6833;BME280;3454;42.654;23.378;2023-02-02T07:41:47;94585.84;;;2.80;96.42
6833;BME280;3454;42.654;23.378;2023-02-02T07:44:13;94598.38;;;3.09;94.12
6833;BME280;3454;42.654;23.378;2023-02-02T07:46:43;94574.22;;;3.36;96.07
6833;BME280;3454;42.654;23.378;2023-02-02T07:49:13;94620.41;;;3.62;92.23
6833;BME280;3454;42.654;23.378;2023-02-02T07:51:40;94629.28;;;3.54;91.78
6833;BME280;3454;42.654;23.378;2023-02-02T07:54:06;94652.13;;;3.65;90.31
6833;BME280;3454;42.654;23.378;2023-02-02T07:56:32;94645.38;;;3.79;89.47
6833;BME280;3454;42.654;23.378;2023-02-02T07:58:58;94645.81;;;4.14;89.08
6833;BME280;3454;42.654;23.378;2023-02-02T08:01:24;94679.72;;;4.49;86.97
6833;BME280;3454;42.654;23.378;2023-02-02T08:03:51;94723.28;;;5.04;85.44
6833;BME280;3454;42.654;23.378;2023-02-02T08:06:26;94749.00;;;5.49;83.50
6833;BME280;3454;42.654;23.378;2023-02-02T08:08:55;94802.28;;;5.96;80.72
6833;BME280;3454;42.654;23.378;2023-02-02T08:11:23;94817.84;;;6.15;79.06
6833;BME280;3454;42.654;23.378;2023-02-02T08:13:53;94810.19;;;6.17;78.51
6833;BME280;3454;42.654;23.378;2023-02-02T08:16:20;94841.41;;;6.53;76.95
6833;BME280;3454;42.654;23.378;2023-02-02T08:18:46;94879.06;;;6.94;74.46
6833;BME280;3454;42.654;23.378;2023-02-02T08:21:13;94865.38;;;7.22;73.65
6833;BME280;3454;42.654;23.378;2023-02-02T08:23:40;94829.06;;;7.23;74.91
6833;BME280;3454;42.654;23.378;2023-02-02T08:26:06;94831.66;;;6.98;73.72
6833;BME280;3454;42.654;23.378;2023-02-02T08:28:32;94827.72;;;6.94;74.03
6833;BME280;3454;42.654;23.378;2023-02-02T08:31:08;94819.66;;;6.89;73.76
6833;BME280;3454;42.654;23.378;2023-02-02T08:33:34;94833.84;;;7.15;73.59
6833;BME280;3454;42.654;23.378;2023-02-02T08:35:59;94853.84;;;7.54;71.82
6833;BME280;3454;42.654;23.378;2023-02-02T08:38:24;94911.13;;;8.02;68.57
6833;BME280;3454;42.654;23.378;2023-02-02T08:40:50;94903.38;;;8.40;66.62
6833;BME280;3454;42.654;23.378;2023-02-02T08:43:16;94901.88;;;8.14;67.06
6833;BME280;3454;42.654;23.378;2023-02-02T08:45:43;94902.00;;;8.36;67.37
6833;BME280;3454;42.654;23.378;2023-02-02T08:48:08;94914.28;;;8.29;66.25
6833;BME280;3454;42.654;23.378;2023-02-02T08:50:34;94897.44;;;7.94;66.75
6833;BME280;3454;42.654;23.378;2023-02-02T08:52:59;94921.59;;;8.21;66.26
6833;BME280;3454;42.654;23.378;2023-02-02T08:55:25;94885.63;;;7.82;67.71
6833;BME280;3454;42.654;23.378;2023-02-02T08:57:50;94841.03;;;7.68;68.42
6833;BME280;3454;42.654;23.378;2023-02-02T09:00:17;94816.75;;;7.42;69.49
6833;BME280;3454;42.654;23.378;2023-02-02T09:02:42;94778.72;;;7.20;71.25
6833;BME280;3454;42.654;23.378;2023-02-02T09:05:08;94798.94;;;7.20;71.13
6833;BME280;3454;42.654;23.378;2023-02-02T09:07:38;94751.09;;;6.93;71.96
6833;BME280;3454;42.654;23.378;2023-02-02T09:10:03;94733.81;;;6.63;73.15
6833;BME280;3454;42.654;23.378;2023-02-02T09:12:30;94692.66;;;6.38;74.95
6833;BME280;3454;42.654;23.378;2023-02-02T09:14:58;94687.88;;;6.58;75.70
6833;BME280;3454;42.654;23.378;2023-02-02T09:17:24;94697.22;;;6.69;75.22
6833;BME280;3454;42.654;23.378;2023-02-02T09:19:50;94680.84;;;6.74;75.11
6833;BME280;3454;42.654;23.378;2023-02-02T09:22:15;94687.50;;;6.75;75.72
6833;BME280;3454;42.654;23.378;2023-02-02T09:24:47;94686.34;;;6.56;75.05
6833;BME280;3454;42.654;23.378;2023-02-02T09:27:13;94651.91;;;6.55;76.54
6833;BME280;3454;42.654;23.378;2023-02-02T09:29:38;94704.31;;;6.88;74.53
6833;BME280;3454;42.654;23.378;2023-02-02T09:32:03;94706.97;;;6.86;74.55
6833;BME280;3454;42.654;23.378;2023-02-02T09:34:29;94723.69;;;7.00;73.31
6833;BME280;3454;42.654;23.378;2023-02-02T09:36:54;94706.16;;;6.86;72.23
6833;BME280;3454;42.654;23.378;2023-02-02T09:39:20;94733.53;;;7.39;71.79
6833;BME280;3454;42.654;23.378;2023-02-02T09:44:54;94842.97;;;8.80;68.50
6833;BME280;3454;42.654;23.378;2023-02-02T09:50:20;94897.72;;;9.15;64.04
6833;BME280;3454;42.654;23.378;2023-02-02T09:53:02;94904.16;;;9.53;63.83
6833;BME280;3454;42.654;23.378;2023-02-02T09:55:35;94851.63;;;8.88;65.29
6833;BME280;3454;42.654;23.378;2023-02-02T09:58:21;94833.00;;;8.32;66.42
6833;BME280;3454;42.654;23.378;2023-02-02T10:01:07;94854.63;;;8.93;64.87
6833;BME280;3454;42.654;23.378;2023-02-02T10:04:01;94868.56;;;9.10;63.37
6833;BME280;3454;42.654;23.378;2023-02-02T10:06:36;94841.13;;;8.60;64.70
6833;BME280;3454;42.654;23.378;2023-02-02T10:09:32;94887.88;;;8.67;63.14
6833;BME280;3454;42.654;23.378;2023-02-02T10:12:13;94940.50;;;8.05;60.58
6833;BME280;3454;42.654;23.378;2023-02-02T10:15:13;94921.91;;;8.17;60.86
6833;BME280;3454;42.654;23.378;2023-02-02T10:18:01;94884.22;;;8.01;62.13
6833;BME280;3454;42.654;23.378;2023-02-02T10:20:53;94867.59;;;8.21;61.66
6833;BME280;3454;42.654;23.378;2023-02-02T10:23:30;94895.94;;;8.61;60.30
6833;BME280;3454;42.654;23.378;2023-02-02T10:26:04;94910.69;;;8.67;59.56
6833;BME280;3454;42.654;23.378;2023-02-02T10:28:41;94892.13;;;8.44;60.40
6833;BME280;3454;42.654;23.378;2023-02-02T10:31:22;94877.53;;;8.70;60.11
6833;BME280;3454;42.654;23.378;2023-02-02T10:34:13;94786.63;;;8.32;64.01
6833;BME280;3454;42.654;23.378;2023-02-02T10:43:03;94901.31;;;8.45;58.92
6833;BME280;3454;42.654;23.378;2023-02-02T10:45:16;94943.13;;;8.96;56.36
6833;BME280;3454;42.654;23.378;2023-02-02T10:47:42;94943.16;;;9.29;55.55
6833;BME280;3454;42.654;23.378;2023-02-02T10:52:40;94974.94;;;9.00;53.14
6833;BME280;3454;42.654;23.378;2023-02-02T10:55:27;94974.75;;;9.14;52.97
6833;BME280;3454;42.654;23.378;2023-02-02T11:00:53;95014.44;;;10.47;50.32
6833;BME280;3454;42.654;23.378;2023-02-02T11:03:22;95039.66;;;10.39;48.67
6833;BME280;3454;42.654;23.378;2023-02-02T11:05:50;95026.31;;;10.26;47.58
6833;BME280;3454;42.654;23.378;2023-02-02T11:08:45;95006.00;;;10.57;47.18
6833;BME280;3454;42.654;23.378;2023-02-02T11:11:19;95010.09;;;10.69;46.58
6833;BME280;3454;42.654;23.378;2023-02-02T11:13:52;95003.00;;;10.84;46.23
6833;BME280;3454;42.654;23.378;2023-02-02T11:16:21;95003.56;;;10.56;45.59
6833;BME280;3454;42.654;23.378;2023-02-02T11:18:48;94963.13;;;10.53;46.62
6833;BME280;3454;42.654;23.378;2023-02-02T11:21:18;94979.28;;;10.63;45.85
6833;BME280;3454;42.654;23.378;2023-02-02T11:27:00;94940.41;;;10.20;46.10
6833;BME280;3454;42.654;23.378;2023-02-02T11:29:42;94933.22;;;10.56;46.12
6833;BME280;3454;42.654;23.378;2023-02-02T11:37:33;94927.75;;;10.40;44.99
6833;BME280;3454;42.654;23.378;2023-02-02T11:43:03;94899.53;;;10.43;45.58
6833;BME280;3454;42.654;23.378;2023-02-02T11:45:34;94915.25;;;10.37;44.90
6833;BME280;3454;42.654;23.378;2023-02-02T11:48:19;94933.09;;;10.78;44.12
6833;BME280;3454;42.654;23.378;2023-02-02T11:50:48;94914.31;;;10.70;44.56
6833;BME280;3454;42.654;23.378;2023-02-02T11:55:46;94921.94;;;10.90;43.84
6833;BME280;3454;42.654;23.378;2023-02-02T12:01:02;94905.03;;;10.89;43.62
6833;BME280;3454;42.654;23.378;2023-02-02T12:03:37;94917.88;;;10.88;43.05
6833;BME280;3454;42.654;23.378;2023-02-02T12:06:21;94897.09;;;11.04;43.28
6833;BME280;3454;42.654;23.378;2023-02-02T12:08:47;94889.06;;;10.57;43.68
6833;BME280;3454;42.654;23.378;2023-02-02T12:27:56;94792.50;;;9.84;46.14
6833;BME280;3454;42.654;23.378;2023-02-02T12:30:35;94762.94;;;9.63;47.38
6833;BME280;3454;42.654;23.378;2023-02-02T12:33:49;94727.19;;;9.34;48.31
6833;BME280;3454;42.654;23.378;2023-02-02T13:09:48;94680.00;;;8.35;50.28
6833;BME280;3454;42.654;23.378;2023-02-02T13:12:18;94678.63;;;8.31;49.75
6833;BME280;3454;42.654;23.378;2023-02-02T13:14:56;94671.50;;;8.36;50.23
6833;BME280;3454;42.654;23.378;2023-02-02T13:19:57;94710.16;;;8.82;48.97
6833;BME280;3454;42.654;23.378;2023-02-02T13:22:34;94702.53;;;8.71;49.01
6833;BME280;3454;42.654;23.378;2023-02-02T13:25:04;94687.84;;;8.54;49.76
6833;BME280;3454;42.654;23.378;2023-02-02T13:27:33;94697.13;;;8.65;49.52
6833;BME280;3454;42.654;23.378;2023-02-02T13:30:09;94706.75;;;8.93;49.77
6833;BME280;3454;42.654;23.378;2023-02-02T13:32:41;94687.00;;;8.76;49.68
6833;BME280;3454;42.654;23.378;2023-02-02T13:35:27;94675.69;;;8.80;49.92
6833;BME280;3454;42.654;23.378;2023-02-02T13:38:18;94669.59;;;8.71;51.10
6833;BME280;3454;42.654;23.378;2023-02-02T13:40:46;94647.97;;;8.67;51.40
6833;BME280;3454;42.654;23.378;2023-02-02T13:46:33;94688.22;;;8.92;49.77
6833;BME280;3454;42.654;23.378;2023-02-02T13:49:08;94715.81;;;8.64;48.72
6833;BME280;3454;42.654;23.378;2023-02-02T13:56:38;94705.44;;;8.44;49.01
6833;BME280;3454;42.654;23.378;2023-02-02T13:59:38;94690.69;;;8.61;49.88
6833;BME280;3454;42.654;23.378;2023-02-02T14:04:56;94702.56;;;9.14;48.85
6833;BME280;3454;42.654;23.378;2023-02-02T14:07:28;94673.03;;;8.81;49.91
6833;BME280;3454;42.654;23.378;2023-02-02T14:09:55;94668.38;;;8.97;50.77
6833;BME280;3454;42.654;23.378;2023-02-02T14:12:28;94594.47;;;8.81;53.63
6833;BME280;3454;42.654;23.378;2023-02-02T14:14:54;94542.69;;;8.63;56.13
6833;BME280;3454;42.654;23.378;2023-02-02T14:19:51;94456.50;;;8.22;58.41
6833;BME280;3454;42.654;23.378;2023-02-02T14:22:19;94466.94;;;8.28;59.63
6833;BME280;3454;42.654;23.378;2023-02-02T14:25:06;94437.50;;;7.85;61.01
6833;BME280;3454;42.654;23.378;2023-02-02T14:27:59;94389.06;;;7.46;62.72
6833;BME280;3454;42.654;23.378;2023-02-02T14:30:27;94404.81;;;7.28;63.07
6833;BME280;3454;42.654;23.378;2023-02-02T14:33:23;94416.09;;;7.24;62.67
6833;BME280;3454;42.654;23.378;2023-02-02T14:38:22;94382.78;;;7.08;65.12
6833;BME280;3454;42.654;23.378;2023-02-02T14:41:04;94374.97;;;7.00;66.29
6833;BME280;3454;42.654;23.378;2023-02-02T14:43:47;94351.78;;;6.84;69.05
6833;BME280;3454;42.654;23.378;2023-02-02T14:46:21;94309.88;;;6.70;72.48
6833;BME280;3454;42.654;23.378;2023-02-02T14:51:23;94217.72;;;5.98;88.15
6833;BME280;3454;42.654;23.378;2023-02-02T14:57:21;94343.75;;;4.92;100.00
6833;BME280;3454;42.654;23.378;2023-02-02T14:59:49;94390.22;;;4.38;100.00
6833;BME280;3454;42.654;23.378;2023-02-02T15:02:29;94423.44;;;4.56;100.00
6833;BME280;3454;42.654;23.378;2023-02-02T15:07:54;94431.44;;;4.23;100.00
6833;BME280;3454;42.654;23.378;2023-02-02T15:11:00;94451.03;;;3.79;100.00
6833;BME280;3454;42.654;23.378;2023-02-02T15:13:30;94463.38;;;3.55;100.00
6833;BME280;3454;42.654;23.378;2023-02-02T15:16:25;94469.78;;;3.32;100.00
6833;BME280;3454;42.654;23.378;2023-02-02T15:19:03;94440.84;;;2.85;100.00
6833;BME280;3454;42.654;23.378;2023-02-02T15:21:30;94475.09;;;3.00;100.00
6833;BME280;3454;42.654;23.378;2023-02-02T15:23:58;94490.88;;;2.88;100.00
6833;BME280;3454;42.654;23.378;2023-02-02T15:26:31;94508.69;;;2.83;100.00
6833;BME280;3454;42.654;23.378;2023-02-02T15:29:04;94514.72;;;2.95;100.00
6833;BME280;3454;42.654;23.378;2023-02-02T15:31:45;94501.84;;;2.71;100.00
6833;BME280;3454;42.654;23.378;2023-02-02T15:34:27;94512.00;;;2.84;100.00
6833;BME280;3454;42.654;23.378;2023-02-02T15:37:01;94504.66;;;2.67;100.00
6833;BME280;3454;42.654;23.378;2023-02-02T15:39:35;94511.16;;;2.69;100.00
6833;BME280;3454;42.654;23.378;2023-02-02T15:42:06;94524.31;;;2.88;100.00
6833;BME280;3454;42.654;23.378;2023-02-02T15:44:56;94516.06;;;2.56;100.00
6833;BME280;3454;42.654;23.378;2023-02-02T15:47:29;94523.69;;;2.55;100.00
6833;BME280;3454;42.654;23.378;2023-02-02T15:49:55;94530.75;;;2.48;100.00
6833;BME280;3454;42.654;23.378;2023-02-02T15:52:30;94527.97;;;2.53;100.00
6833;BME280;3454;42.654;23.378;2023-02-02T15:55:19;94544.94;;;2.34;100.00
6833;BME280;3454;42.654;23.378;2023-02-02T15:57:46;94533.72;;;2.25;100.00
6833;BME280;3454;42.654;23.378;2023-02-02T16:02:56;94556.75;;;2.32;100.00
6833;BME280;3454;42.654;23.378;2023-02-02T16:07:57;94561.22;;;2.27;100.00